sensor_id;sensor_type;location;lat;lon;timestamp;temperature;humidity
33067;DHT22;19428;49.024;8.366;2022-10-16T00:00:15;16.00;99.90
33067;DHT22;19428;49.024;8.366;2022-10-16T00:02:40;16.00;99.90
33067;DHT22;19428;49.024;8.366;2022-10-16T00:05:16;16.00;99.90
33067;DHT22;19428;49.024;8.366;2022-10-16T00:07:47;16.00;99.90
33067;DHT22;19428;49.024;8.366;2022-10-16T00:10:25;16.00;99.90
33067;DHT22;19428;49.024;8.366;2022-10-16T00:12:50;16.00;99.90
33067;DHT22;19428;49.024;8.366;2022-10-16T00:15:16;16.00;99.90
33067;DHT22;19428;49.024;8.366;2022-10-16T00:17:51;15.90;99.90
33067;DHT22;19428;49.024;8.366;2022-10-16T00:20:36;15.90;99.90
33067;DHT22;19428;49.024;8.366;2022-10-16T00:23:07;15.90;99.90
33067;DHT22;19428;49.024;8.366;2022-10-16T00:25:40;15.90;99.90
33067;DHT22;19428;49.024;8.366;2022-10-16T00:28:17;15.90;99.90
33067;DHT22;19428;49.024;8.366;2022-10-16T00:31:02;15.80;99.90
33067;DHT22;19428;49.024;8.366;2022-10-16T00:38:47;16.00;99.90
33067;DHT22;19428;49.024;8.366;2022-10-16T00:44:53;16.10;99.90
33067;DHT22;19428;49.024;8.366;2022-10-16T00:47:26;16.10;99.90
33067;DHT22;19428;49.024;8.366;2022-10-16T00:50:35;16.00;99.90
33067;DHT22;19428;49.024;8.366;2022-10-16T00:56:08;16.00;99.90
33067;DHT22;19428;49.024;8.366;2022-10-16T01:01:30;16.00;99.90
33067;DHT22;19428;49.024;8.366;2022-10-16T01:03:56;16.00;99.90
33067;DHT22;19428;49.024;8.366;2022-10-16T01:06:25;16.00;99.90
33067;DHT22;19428;49.024;8.366;2022-10-16T01:11:45;16.10;99.90
33067;DHT22;19428;49.024;8.366;2022-10-16T01:17:15;16.00;99.90
33067;DHT22;19428;49.024;8.366;2022-10-16T01:20:03;16.10;99.90
33067;DHT22;19428;49.024;8.366;2022-10-16T01:23:05;16.00;99.90
33067;DHT22;19428;49.024;8.366;2022-10-16T01:26:05;16.00;99.90
33067;DHT22;19428;49.024;8.366;2022-10-16T01:29:00;16.00;99.90
33067;DHT22;19428;49.024;8.366;2022-10-16T01:31:32;16.00;99.90
33067;DHT22;19428;49.024;8.366;2022-10-16T01:34:06;16.00;99.90
33067;DHT22;19428;49.024;8.366;2022-10-16T01:36:38;16.00;99.90
33067;DHT22;19428;49.024;8.366;2022-10-16T01:39:04;16.00;99.90
33067;DHT22;19428;49.024;8.366;2022-10-16T01:41:35;15.90;99.90
33067;DHT22;19428;49.024;8.366;2022-10-16T01:44:05;15.90;99.90
33067;DHT22;19428;49.024;8.366;2022-10-16T01:46:34;15.80;99.90
33067;DHT22;19428;49.024;8.366;2022-10-16T01:49:02;15.90;99.90
33067;DHT22;19428;49.024;8.366;2022-10-16T01:54:10;15.90;99.90
33067;DHT22;19428;49.024;8.366;2022-10-16T01:56:39;15.80;99.90
33067;DHT22;19428;49.024;8.366;2022-10-16T01:59:14;15.80;99.90
33067;DHT22;19428;49.024;8.366;2022-10-16T02:01:45;15.80;99.90
33067;DHT22;19428;49.024;8.366;2022-10-16T02:04:22;15.80;99.90
33067;DHT22;19428;49.024;8.366;2022-10-16T02:06:49;15.80;99.90
33067;DHT22;19428;49.024;8.366;2022-10-16T02:09:15;15.80;99.90
33067;DHT22;19428;49.024;8.366;2022-10-16T02:18:25;15.80;99.90
33067;DHT22;19428;49.024;8.366;2022-10-16T02:23:45;15.80;99.90
33067;DHT22;19428;49.024;8.366;2022-10-16T02:26:17;15.70;99.90
33067;DHT22;19428;49.024;8.366;2022-10-16T02:31:54;15.60;99.90
33067;DHT22;19428;49.024;8.366;2022-10-16T02:34:24;15.50;99.90
33067;DHT22;19428;49.024;8.366;2022-10-16T02:36:51;15.50;99.90
33067;DHT22;19428;49.024;8.366;2022-10-16T02:39:21;15.50;99.90
33067;DHT22;19428;49.024;8.366;2022-10-16T02:41:55;15.50;99.90
33067;DHT22;19428;49.024;8.366;2022-10-16T02:44:41;15.40;99.90
33067;DHT22;19428;49.024;8.366;2022-10-16T02:47:37;15.40;99.90
33067;DHT22;19428;49.024;8.366;2022-10-16T02:50:14;15.30;99.90
33067;DHT22;19428;49.024;8.366;2022-10-16T02:53:03;15.40;99.90
33067;DHT22;19428;49.024;8.366;2022-10-16T02:55:32;15.30;99.90
33067;DHT22;19428;49.024;8.366;2022-10-16T03:01:11;15.40;99.90
33067;DHT22;19428;49.024;8.366;2022-10-16T03:04:03;15.40;99.90
33067;DHT22;19428;49.024;8.366;2022-10-16T03:06:57;15.30;99.90
33067;DHT22;19428;49.024;8.366;2022-10-16T03:32:43;15.10;99.90
33067;DHT22;19428;49.024;8.366;2022-10-16T03:35:21;15.10;99.90
33067;DHT22;19428;49.024;8.366;2022-10-16T03:41:13;15.20;99.90
33067;DHT22;19428;49.024;8.366;2022-10-16T03:47:16;15.20;99.90
33067;DHT22;19428;49.024;8.366;2022-10-16T04:01:37;15.30;99.90
33067;DHT22;19428;49.024;8.366;2022-10-16T04:04:10;15.30;99.90
33067;DHT22;19428;49.024;8.366;2022-10-16T04:06:36;15.30;99.90
33067;DHT22;19428;49.024;8.366;2022-10-16T04:09:02;15.40;99.90
33067;DHT22;19428;49.024;8.366;2022-10-16T04:11:31;15.40;99.90
33067;DHT22;19428;49.024;8.366;2022-10-16T04:13:59;15.40;99.90
33067;DHT22;19428;49.024;8.366;2022-10-16T04:16:30;15.40;99.90
33067;DHT22;19428;49.024;8.366;2022-10-16T04:19:01;15.40;99.90
33067;DHT22;19428;49.024;8.366;2022-10-16T04:21:30;15.50;99.90
33067;DHT22;19428;49.024;8.366;2022-10-16T04:24:03;15.50;99.90
33067;DHT22;19428;49.024;8.366;2022-10-16T04:26:31;15.60;99.90
33067;DHT22;19428;49.024;8.366;2022-10-16T04:29:04;15.50;99.90
33067;DHT22;19428;49.024;8.366;2022-10-16T04:31:33;15.50;99.90
33067;DHT22;19428;49.024;8.366;2022-10-16T04:34:06;15.50;99.90
33067;DHT22;19428;49.024;8.366;2022-10-16T04:39:25;15.60;99.90
33067;DHT22;19428;49.024;8.366;2022-10-16T04:42:01;15.60;99.90
33067;DHT22;19428;49.024;8.366;2022-10-16T04:44:31;15.60;99.90
33067;DHT22;19428;49.024;8.366;2022-10-16T04:47:07;15.60;99.90
33067;DHT22;19428;49.024;8.366;2022-10-16T04:53:00;15.60;99.90
33067;DHT22;19428;49.024;8.366;2022-10-16T04:55:37;15.60;99.90
33067;DHT22;19428;49.024;8.366;2022-10-16T04:58:11;15.50;99.90
33067;DHT22;19428;49.024;8.366;2022-10-16T05:03:35;15.40;99.90
33067;DHT22;19428;49.024;8.366;2022-10-16T05:06:01;15.50;99.90
33067;DHT22;19428;49.024;8.366;2022-10-16T05:08:29;15.50;99.90
33067;DHT22;19428;49.024;8.366;2022-10-16T05:10:55;15.50;99.90
33067;DHT22;19428;49.024;8.366;2022-10-16T05:16:23;15.40;99.90
33067;DHT22;19428;49.024;8.366;2022-10-16T05:21:24;15.40;99.90
33067;DHT22;19428;49.024;8.366;2022-10-16T05:26:27;15.50;99.90
33067;DHT22;19428;49.024;8.366;2022-10-16T05:28:53;15.50;99.90
33067;DHT22;19428;49.024;8.366;2022-10-16T05:31:18;15.50;99.90
33067;DHT22;19428;49.024;8.366;2022-10-16T05:33:46;15.50;99.90
33067;DHT22;19428;49.024;8.366;2022-10-16T05:39:11;15.50;99.90
33067;DHT22;19428;49.024;8.366;2022-10-16T05:41:40;15.50;99.90
33067;DHT22;19428;49.024;8.366;2022-10-16T05:44:06;15.60;99.90
33067;DHT22;19428;49.024;8.366;2022-10-16T05:46:34;15.70;99.90
33067;DHT22;19428;49.024;8.366;2022-10-16T05:49:09;15.60;99.90
33067;DHT22;19428;49.024;8.366;2022-10-16T05:55:06;15.60;99.90
33067;DHT22;19428;49.024;8.366;2022-10-16T05:57:42;15.50;99.90
33067;DHT22;19428;49.024;8.366;2022-10-16T06:00:28;15.50;99.90
33067;DHT22;19428;49.024;8.366;2022-10-16T06:02:56;15.40;99.90
33067;DHT22;19428;49.024;8.366;2022-10-16T06:05:22;15.40;99.90
33067;DHT22;19428;49.024;8.366;2022-10-16T06:07:50;15.40;99.90
33067;DHT22;19428;49.024;8.366;2022-10-16T06:10:15;15.50;99.90
33067;DHT22;19428;49.024;8.366;2022-10-16T06:12:41;15.60;99.90
33067;DHT22;19428;49.024;8.366;2022-10-16T06:15:09;15.70;99.90
33067;DHT22;19428;49.024;8.366;2022-10-16T06:17:35;15.90;99.90
33067;DHT22;19428;49.024;8.366;2022-10-16T06:20:04;15.90;99.90
33067;DHT22;19428;49.024;8.366;2022-10-16T06:22:32;15.80;99.90
33067;DHT22;19428;49.024;8.366;2022-10-16T06:27:41;15.90;99.90
33067;DHT22;19428;49.024;8.366;2022-10-16T06:30:31;15.90;99.90
33067;DHT22;19428;49.024;8.366;2022-10-16T06:32:59;15.90;99.90
33067;DHT22;19428;49.024;8.366;2022-10-16T06:35:28;15.90;99.90
33067;DHT22;19428;49.024;8.366;2022-10-16T06:37:57;15.90;99.90
33067;DHT22;19428;49.024;8.366;2022-10-16T06:43:26;16.00;99.90
33067;DHT22;19428;49.024;8.366;2022-10-16T06:45:59;16.00;99.90
33067;DHT22;19428;49.024;8.366;2022-10-16T06:48:31;16.00;99.90
33067;DHT22;19428;49.024;8.366;2022-10-16T06:53:26;16.00;99.90
33067;DHT22;19428;49.024;8.366;2022-10-16T06:55:55;16.10;99.90
33067;DHT22;19428;49.024;8.366;2022-10-16T06:58:23;16.10;99.90
33067;DHT22;19428;49.024;8.366;2022-10-16T07:00:55;16.20;99.90
33067;DHT22;19428;49.024;8.366;2022-10-16T07:03:21;16.20;99.90
33067;DHT22;19428;49.024;8.366;2022-10-16T07:05:48;16.20;99.90
33067;DHT22;19428;49.024;8.366;2022-10-16T07:11:15;16.30;99.90
33067;DHT22;19428;49.024;8.366;2022-10-16T07:13:42;16.40;99.90
33067;DHT22;19428;49.024;8.366;2022-10-16T07:16:14;16.50;99.90
33067;DHT22;19428;49.024;8.366;2022-10-16T07:18:41;16.50;99.90
33067;DHT22;19428;49.024;8.366;2022-10-16T07:23:43;16.50;99.90
33067;DHT22;19428;49.024;8.366;2022-10-16T07:26:10;16.60;99.90
33067;DHT22;19428;49.024;8.366;2022-10-16T07:28:36;16.70;99.90
33067;DHT22;19428;49.024;8.366;2022-10-16T07:31:03;16.70;99.90
33067;DHT22;19428;49.024;8.366;2022-10-16T07:33:29;16.70;99.90
33067;DHT22;19428;49.024;8.366;2022-10-16T07:35:55;16.80;99.90
33067;DHT22;19428;49.024;8.366;2022-10-16T07:38:21;16.80;99.90
33067;DHT22;19428;49.024;8.366;2022-10-16T07:40:48;16.80;99.90
33067;DHT22;19428;49.024;8.366;2022-10-16T07:43:39;16.90;99.90
33067;DHT22;19428;49.024;8.366;2022-10-16T07:46:07;17.00;99.90
33067;DHT22;19428;49.024;8.366;2022-10-16T07:48:34;17.10;99.90
33067;DHT22;19428;49.024;8.366;2022-10-16T07:51:02;17.10;99.90
33067;DHT22;19428;49.024;8.366;2022-10-16T07:53:28;17.10;99.90
33067;DHT22;19428;49.024;8.366;2022-10-16T07:55:58;17.10;99.90
33067;DHT22;19428;49.024;8.366;2022-10-16T07:58:25;17.10;99.90
33067;DHT22;19428;49.024;8.366;2022-10-16T08:00:50;17.10;99.90
33067;DHT22;19428;49.024;8.366;2022-10-16T08:03:17;17.10;99.90
33067;DHT22;19428;49.024;8.366;2022-10-16T08:05:43;17.20;99.90
33067;DHT22;19428;49.024;8.366;2022-10-16T08:08:14;17.20;99.90
33067;DHT22;19428;49.024;8.366;2022-10-16T08:10:41;17.20;99.90
33067;DHT22;19428;49.024;8.366;2022-10-16T08:13:11;17.30;99.90
33067;DHT22;19428;49.024;8.366;2022-10-16T08:15:43;17.30;99.90
33067;DHT22;19428;49.024;8.366;2022-10-16T08:18:13;17.40;99.90
33067;DHT22;19428;49.024;8.366;2022-10-16T08:20:40;17.50;99.90
33067;DHT22;19428;49.024;8.366;2022-10-16T08:23:07;17.60;99.90
33067;DHT22;19428;49.024;8.366;2022-10-16T08:25:37;17.60;99.90
33067;DHT22;19428;49.024;8.366;2022-10-16T08:28:05;17.60;99.90
33067;DHT22;19428;49.024;8.366;2022-10-16T08:30:32;17.60;99.90
33067;DHT22;19428;49.024;8.366;2022-10-16T08:33:01;17.60;99.90
33067;DHT22;19428;49.024;8.366;2022-10-16T08:35:29;17.70;99.90
33067;DHT22;19428;49.024;8.366;2022-10-16T08:37:57;17.70;99.90
33067;DHT22;19428;49.024;8.366;2022-10-16T08:40:28;17.70;99.90
33067;DHT22;19428;49.024;8.366;2022-10-16T08:48:53;17.90;99.90
33067;DHT22;19428;49.024;8.366;2022-10-16T08:51:33;17.90;99.90
33067;DHT22;19428;49.024;8.366;2022-10-16T08:54:06;17.90;99.90
33067;DHT22;19428;49.024;8.366;2022-10-16T08:56:36;17.90;99.90
33067;DHT22;19428;49.024;8.366;2022-10-16T08:59:03;17.90;99.90
33067;DHT22;19428;49.024;8.366;2022-10-16T09:01:40;17.90;99.90
33067;DHT22;19428;49.024;8.366;2022-10-16T09:10:29;18.00;99.90
33067;DHT22;19428;49.024;8.366;2022-10-16T09:21:23;18.10;99.90
33067;DHT22;19428;49.024;8.366;2022-10-16T09:23:50;18.10;99.90
33067;DHT22;19428;49.024;8.366;2022-10-16T09:26:16;18.10;99.90
33067;DHT22;19428;49.024;8.366;2022-10-16T09:28:43;18.10;99.90
33067;DHT22;19428;49.024;8.366;2022-10-16T09:31:16;18.00;99.90
33067;DHT22;19428;49.024;8.366;2022-10-16T09:33:43;18.10;99.90
33067;DHT22;19428;49.024;8.366;2022-10-16T09:36:11;18.10;99.90
33067;DHT22;19428;49.024;8.366;2022-10-16T09:38:37;18.20;99.90
33067;DHT22;19428;49.024;8.366;2022-10-16T09:41:20;18.40;99.90
33067;DHT22;19428;49.024;8.366;2022-10-16T09:43:49;18.40;99.90
33067;DHT22;19428;49.024;8.366;2022-10-16T09:46:33;18.60;99.90
33067;DHT22;19428;49.024;8.366;2022-10-16T09:49:01;18.80;99.90
33067;DHT22;19428;49.024;8.366;2022-10-16T09:51:30;18.80;99.90
33067;DHT22;19428;49.024;8.366;2022-10-16T09:54:18;18.90;99.90
33067;DHT22;19428;49.024;8.366;2022-10-16T09:56:45;18.90;99.90
33067;DHT22;19428;49.024;8.366;2022-10-16T09:59:14;19.00;99.90
33067;DHT22;19428;49.024;8.366;2022-10-16T10:01:53;19.30;99.90
33067;DHT22;19428;49.024;8.366;2022-10-16T10:04:22;19.40;99.90
33067;DHT22;19428;49.024;8.366;2022-10-16T10:06:52;19.30;99.90
33067;DHT22;19428;49.024;8.366;2022-10-16T10:09:38;19.20;99.90
33067;DHT22;19428;49.024;8.366;2022-10-16T10:12:06;19.30;99.90
33067;DHT22;19428;49.024;8.366;2022-10-16T10:14:37;19.50;99.90
33067;DHT22;19428;49.024;8.366;2022-10-16T10:19:57;19.60;99.90
33067;DHT22;19428;49.024;8.366;2022-10-16T10:27:43;19.80;99.90
33067;DHT22;19428;49.024;8.366;2022-10-16T10:33:15;19.90;99.90
33067;DHT22;19428;49.024;8.366;2022-10-16T10:35:59;20.30;99.90
33067;DHT22;19428;49.024;8.366;2022-10-16T10:38:56;20.50;99.90
33067;DHT22;19428;49.024;8.366;2022-10-16T11:07:23;20.50;99.90
33067;DHT22;19428;49.024;8.366;2022-10-16T11:10:18;20.70;99.90
33067;DHT22;19428;49.024;8.366;2022-10-16T11:12:52;20.80;99.90
33067;DHT22;19428;49.024;8.366;2022-10-16T11:15:30;20.90;99.90
33067;DHT22;19428;49.024;8.366;2022-10-16T11:18:18;20.90;99.90
33067;DHT22;19428;49.024;8.366;2022-10-16T11:21:02;21.00;99.90
33067;DHT22;19428;49.024;8.366;2022-10-16T11:24:09;21.10;99.90
33067;DHT22;19428;49.024;8.366;2022-10-16T11:27:12;21.10;99.90
33067;DHT22;19428;49.024;8.366;2022-10-16T11:30:29;21.20;99.90
33067;DHT22;19428;49.024;8.366;2022-10-16T11:45:22;21.30;99.90
33067;DHT22;19428;49.024;8.366;2022-10-16T11:58:25;21.70;99.90
33067;DHT22;19428;49.024;8.366;2022-10-16T12:04:46;21.80;99.90
33067;DHT22;19428;49.024;8.366;2022-10-16T12:07:23;21.70;99.90
33067;DHT22;19428;49.024;8.366;2022-10-16T12:09:53;21.60;99.90
33067;DHT22;19428;49.024;8.366;2022-10-16T12:15:26;21.50;99.90
33067;DHT22;19428;49.024;8.366;2022-10-16T12:17:52;21.50;99.90
33067;DHT22;19428;49.024;8.366;2022-10-16T12:20:31;21.70;99.90
33067;DHT22;19428;49.024;8.366;2022-10-16T12:23:19;21.80;99.90
33067;DHT22;19428;49.024;8.366;2022-10-16T12:25:56;21.80;99.90
33067;DHT22;19428;49.024;8.366;2022-10-16T12:28:46;22.10;99.90
33067;DHT22;19428;49.024;8.366;2022-10-16T12:31:42;22.20;99.90
33067;DHT22;19428;49.024;8.366;2022-10-16T12:41:08;21.90;99.90
33067;DHT22;19428;49.024;8.366;2022-10-16T12:43:46;21.80;99.90
33067;DHT22;19428;49.024;8.366;2022-10-16T12:51:52;21.70;99.90
33067;DHT22;19428;49.024;8.366;2022-10-16T12:54:40;21.60;99.90
33067;DHT22;19428;49.024;8.366;2022-10-16T13:00:17;21.50;99.90
33067;DHT22;19428;49.024;8.366;2022-10-16T13:03:31;21.50;99.90
33067;DHT22;19428;49.024;8.366;2022-10-16T13:15:19;21.20;99.90
33067;DHT22;19428;49.024;8.366;2022-10-16T13:18:36;21.20;99.90
33067;DHT22;19428;49.024;8.366;2022-10-16T14:06:16;20.50;99.90
33067;DHT22;19428;49.024;8.366;2022-10-16T14:08:45;20.40;99.90
33067;DHT22;19428;49.024;8.366;2022-10-16T14:11:13;20.40;99.90
33067;DHT22;19428;49.024;8.366;2022-10-16T14:13:46;20.30;99.90
33067;DHT22;19428;49.024;8.366;2022-10-16T14:16:22;20.30;99.90
33067;DHT22;19428;49.024;8.366;2022-10-16T14:19:00;20.30;99.90
33067;DHT22;19428;49.024;8.366;2022-10-16T14:21:27;20.30;99.90
33067;DHT22;19428;49.024;8.366;2022-10-16T14:23:53;20.40;99.90
33067;DHT22;19428;49.024;8.366;2022-10-16T14:26:22;20.60;99.90
33067;DHT22;19428;49.024;8.366;2022-10-16T14:29:00;20.70;99.90
33067;DHT22;19428;49.024;8.366;2022-10-16T14:31:31;20.90;99.90
33067;DHT22;19428;49.024;8.366;2022-10-16T14:33:57;21.00;99.90
33067;DHT22;19428;49.024;8.366;2022-10-16T14:36:24;21.10;99.90
33067;DHT22;19428;49.024;8.366;2022-10-16T14:41:22;21.50;99.90
33067;DHT22;19428;49.024;8.366;2022-10-16T14:43:53;21.90;99.90
33067;DHT22;19428;49.024;8.366;2022-10-16T14:46:22;22.10;99.90
33067;DHT22;19428;49.024;8.366;2022-10-16T14:48:54;22.30;99.90
33067;DHT22;19428;49.024;8.366;2022-10-16T14:51:23;22.40;99.90
33067;DHT22;19428;49.024;8.366;2022-10-16T14:53:49;22.20;99.90
33067;DHT22;19428;49.024;8.366;2022-10-16T14:56:26;21.90;99.90
33067;DHT22;19428;49.024;8.366;2022-10-16T14:58:55;22.00;99.90
33067;DHT22;19428;49.024;8.366;2022-10-16T15:01:21;22.00;99.90
33067;DHT22;19428;49.024;8.366;2022-10-16T15:03:47;22.00;99.90
33067;DHT22;19428;49.024;8.366;2022-10-16T15:06:14;21.80;99.90
33067;DHT22;19428;49.024;8.366;2022-10-16T15:08:41;21.50;99.90
33067;DHT22;19428;49.024;8.366;2022-10-16T15:11:18;21.50;99.90
33067;DHT22;19428;49.024;8.366;2022-10-16T15:13:45;21.30;99.90
33067;DHT22;19428;49.024;8.366;2022-10-16T15:16:14;21.10;99.90
33067;DHT22;19428;49.024;8.366;2022-10-16T15:18:41;21.00;99.90
33067;DHT22;19428;49.024;8.366;2022-10-16T15:21:07;21.00;99.90
33067;DHT22;19428;49.024;8.366;2022-10-16T15:23:33;21.00;99.90
33067;DHT22;19428;49.024;8.366;2022-10-16T15:25:59;21.00;99.90
33067;DHT22;19428;49.024;8.366;2022-10-16T15:28:25;21.00;99.90
33067;DHT22;19428;49.024;8.366;2022-10-16T15:30:53;21.00;99.90
33067;DHT22;19428;49.024;8.366;2022-10-16T15:33:21;20.90;99.90
33067;DHT22;19428;49.024;8.366;2022-10-16T15:35:50;20.90;99.90
33067;DHT22;19428;49.024;8.366;2022-10-16T15:38:17;20.90;99.90
33067;DHT22;19428;49.024;8.366;2022-10-16T15:40:43;20.80;99.90
33067;DHT22;19428;49.024;8.366;2022-10-16T16:57:21;17.80;99.90
33067;DHT22;19428;49.024;8.366;2022-10-16T17:02:22;17.70;99.90
33067;DHT22;19428;49.024;8.366;2022-10-16T17:04:48;17.70;99.90
33067;DHT22;19428;49.024;8.366;2022-10-16T17:07:16;17.70;99.90
33067;DHT22;19428;49.024;8.366;2022-10-16T17:09:41;18.00;99.90
33067;DHT22;19428;49.024;8.366;2022-10-16T17:12:25;18.10;99.90
33067;DHT22;19428;49.024;8.366;2022-10-16T17:18:21;17.70;99.90
33067;DHT22;19428;49.024;8.366;2022-10-16T17:21:19;17.40;99.90
33067;DHT22;19428;49.024;8.366;2022-10-16T17:23:51;17.30;99.90
33067;DHT22;19428;49.024;8.366;2022-10-16T17:26:45;17.20;99.90
33067;DHT22;19428;49.024;8.366;2022-10-16T17:29:31;17.10;99.90
33067;DHT22;19428;49.024;8.366;2022-10-16T17:32:34;17.00;99.90
33067;DHT22;19428;49.024;8.366;2022-10-16T17:35:25;16.90;99.90
33067;DHT22;19428;49.024;8.366;2022-10-16T17:37:56;17.00;99.90
33067;DHT22;19428;49.024;8.366;2022-10-16T17:40:41;16.80;99.90
33067;DHT22;19428;49.024;8.366;2022-10-16T17:43:10;16.70;99.90
33067;DHT22;19428;49.024;8.366;2022-10-16T17:45:36;16.60;99.90
33067;DHT22;19428;49.024;8.366;2022-10-16T17:48:08;16.50;99.90
33067;DHT22;19428;49.024;8.366;2022-10-16T17:50:39;16.80;99.90
33067;DHT22;19428;49.024;8.366;2022-10-16T17:53:05;17.10;99.90
33067;DHT22;19428;49.024;8.366;2022-10-16T17:55:30;17.10;99.90
33067;DHT22;19428;49.024;8.366;2022-10-16T17:57:56;16.70;99.90
33067;DHT22;19428;49.024;8.366;2022-10-16T18:00:22;16.50;99.90
33067;DHT22;19428;49.024;8.366;2022-10-16T18:02:48;16.50;99.90
33067;DHT22;19428;49.024;8.366;2022-10-16T18:05:14;16.50;99.90
33067;DHT22;19428;49.024;8.366;2022-10-16T18:07:40;16.50;99.90
33067;DHT22;19428;49.024;8.366;2022-10-16T18:10:06;16.50;99.90
33067;DHT22;19428;49.024;8.366;2022-10-16T18:12:34;16.50;99.90
33067;DHT22;19428;49.024;8.366;2022-10-16T18:14:59;16.40;99.90
33067;DHT22;19428;49.024;8.366;2022-10-16T18:17:37;16.40;99.90
33067;DHT22;19428;49.024;8.366;2022-10-16T18:20:06;16.30;99.90
33067;DHT22;19428;49.024;8.366;2022-10-16T18:22:35;16.00;99.90
33067;DHT22;19428;49.024;8.366;2022-10-16T18:25:05;16.10;99.90
33067;DHT22;19428;49.024;8.366;2022-10-16T18:27:54;16.00;99.90
33067;DHT22;19428;49.024;8.366;2022-10-16T18:37:25;16.00;99.90
33067;DHT22;19428;49.024;8.366;2022-10-16T18:39:51;15.90;99.90
33067;DHT22;19428;49.024;8.366;2022-10-16T18:42:32;15.80;99.90
33067;DHT22;19428;49.024;8.366;2022-10-16T18:46:14;15.60;99.90
33067;DHT22;19428;49.024;8.366;2022-10-16T18:48:17;15.80;99.90
33067;DHT22;19428;49.024;8.366;2022-10-16T18:50:45;16.00;99.90
33067;DHT22;19428;49.024;8.366;2022-10-16T18:53:27;16.00;99.90
33067;DHT22;19428;49.024;8.366;2022-10-16T19:32:35;15.40;99.90
33067;DHT22;19428;49.024;8.366;2022-10-16T19:35:03;15.40;99.90
33067;DHT22;19428;49.024;8.366;2022-10-16T19:37:35;15.40;99.90
33067;DHT22;19428;49.024;8.366;2022-10-16T19:40:06;15.40;99.90
33067;DHT22;19428;49.024;8.366;2022-10-16T19:42:35;15.60;99.90
33067;DHT22;19428;49.024;8.366;2022-10-16T19:45:01;15.70;99.90
33067;DHT22;19428;49.024;8.366;2022-10-16T19:47:26;15.70;99.90
33067;DHT22;19428;49.024;8.366;2022-10-16T19:49:52;15.50;99.90
33067;DHT22;19428;49.024;8.366;2022-10-16T19:52:21;15.50;99.90
33067;DHT22;19428;49.024;8.366;2022-10-16T19:54:47;15.10;99.90
33067;DHT22;19428;49.024;8.366;2022-10-16T19:57:13;15.00;99.90
33067;DHT22;19428;49.024;8.366;2022-10-16T19:59:38;15.00;99.90
33067;DHT22;19428;49.024;8.366;2022-10-16T20:02:04;15.00;99.90
33067;DHT22;19428;49.024;8.366;2022-10-16T20:04:30;15.10;99.90
33067;DHT22;19428;49.024;8.366;2022-10-16T20:06:55;15.10;99.90
33067;DHT22;19428;49.024;8.366;2022-10-16T20:09:21;14.90;99.90
33067;DHT22;19428;49.024;8.366;2022-10-16T20:11:47;14.80;99.90
33067;DHT22;19428;49.024;8.366;2022-10-16T20:14:12;14.70;99.90
33067;DHT22;19428;49.024;8.366;2022-10-16T20:16:38;14.80;99.90
33067;DHT22;19428;49.024;8.366;2022-10-16T20:19:04;14.80;99.90
33067;DHT22;19428;49.024;8.366;2022-10-16T20:21:32;14.60;99.90
33067;DHT22;19428;49.024;8.366;2022-10-16T20:23:59;14.70;99.90
33067;DHT22;19428;49.024;8.366;2022-10-16T20:26:25;14.80;99.90
33067;DHT22;19428;49.024;8.366;2022-10-16T20:28:52;14.80;99.90
33067;DHT22;19428;49.024;8.366;2022-10-16T20:31:26;14.80;99.90
33067;DHT22;19428;49.024;8.366;2022-10-16T20:33:54;15.00;99.90
33067;DHT22;19428;49.024;8.366;2022-10-16T20:36:21;14.90;99.90
33067;DHT22;19428;49.024;8.366;2022-10-16T20:38:46;14.90;99.90
33067;DHT22;19428;49.024;8.366;2022-10-16T20:41:13;14.70;99.90
33067;DHT22;19428;49.024;8.366;2022-10-16T20:43:43;14.50;99.90
33067;DHT22;19428;49.024;8.366;2022-10-16T20:46:11;14.50;99.90
33067;DHT22;19428;49.024;8.366;2022-10-16T20:48:39;14.50;99.90
33067;DHT22;19428;49.024;8.366;2022-10-16T20:51:26;14.70;99.90
33067;DHT22;19428;49.024;8.366;2022-10-16T20:53:55;14.70;99.90
33067;DHT22;19428;49.024;8.366;2022-10-16T20:56:23;14.50;99.90
33067;DHT22;19428;49.024;8.366;2022-10-16T20:58:49;14.20;99.90
33067;DHT22;19428;49.024;8.366;2022-10-16T21:01:16;14.30;99.90
33067;DHT22;19428;49.024;8.366;2022-10-16T21:03:43;14.30;99.90
33067;DHT22;19428;49.024;8.366;2022-10-16T21:06:10;14.30;99.90
33067;DHT22;19428;49.024;8.366;2022-10-16T21:08:37;14.40;99.90
33067;DHT22;19428;49.024;8.366;2022-10-16T21:11:15;14.50;99.90
33067;DHT22;19428;49.024;8.366;2022-10-16T21:13:42;14.70;99.90
33067;DHT22;19428;49.024;8.366;2022-10-16T21:16:10;14.60;99.90
33067;DHT22;19428;49.024;8.366;2022-10-16T21:18:36;14.70;99.90
33067;DHT22;19428;49.024;8.366;2022-10-16T21:21:01;14.70;99.90
33067;DHT22;19428;49.024;8.366;2022-10-16T21:23:27;14.80;99.90
33067;DHT22;19428;49.024;8.366;2022-10-16T21:25:53;14.80;99.90
33067;DHT22;19428;49.024;8.366;2022-10-16T21:28:19;14.60;99.90
33067;DHT22;19428;49.024;8.366;2022-10-16T21:30:44;14.30;99.90
33067;DHT22;19428;49.024;8.366;2022-10-16T21:33:10;14.20;99.90
33067;DHT22;19428;49.024;8.366;2022-10-16T21:35:36;14.10;99.90
33067;DHT22;19428;49.024;8.366;2022-10-16T21:38:02;14.10;99.90
33067;DHT22;19428;49.024;8.366;2022-10-16T21:40:31;14.10;99.90
33067;DHT22;19428;49.024;8.366;2022-10-16T21:42:57;13.90;99.90
33067;DHT22;19428;49.024;8.366;2022-10-16T21:45:23;14.00;99.90
33067;DHT22;19428;49.024;8.366;2022-10-16T21:47:49;13.90;99.90
33067;DHT22;19428;49.024;8.366;2022-10-16T21:50:14;13.90;99.90
33067;DHT22;19428;49.024;8.366;2022-10-16T21:52:40;13.90;99.90
33067;DHT22;19428;49.024;8.366;2022-10-16T21:55:06;13.90;99.90
33067;DHT22;19428;49.024;8.366;2022-10-16T21:57:33;13.90;99.90
33067;DHT22;19428;49.024;8.366;2022-10-16T21:59:58;13.90;99.90
33067;DHT22;19428;49.024;8.366;2022-10-16T22:02:24;13.90;99.90
33067;DHT22;19428;49.024;8.366;2022-10-16T22:04:50;14.20;99.90
33067;DHT22;19428;49.024;8.366;2022-10-16T22:07:15;14.10;99.90
33067;DHT22;19428;49.024;8.366;2022-10-16T22:09:41;14.20;99.90
33067;DHT22;19428;49.024;8.366;2022-10-16T22:12:07;14.40;99.90
33067;DHT22;19428;49.024;8.366;2022-10-16T22:14:32;14.30;99.90
33067;DHT22;19428;49.024;8.366;2022-10-16T22:16:58;14.20;99.90
33067;DHT22;19428;49.024;8.366;2022-10-16T22:19:24;14.20;99.90
33067;DHT22;19428;49.024;8.366;2022-10-16T22:21:52;14.10;99.90
33067;DHT22;19428;49.024;8.366;2022-10-16T22:24:20;14.00;99.90
33067;DHT22;19428;49.024;8.366;2022-10-16T22:29:51;13.70;99.90
33067;DHT22;19428;49.024;8.366;2022-10-16T22:32:17;13.60;99.90
33067;DHT22;19428;49.024;8.366;2022-10-16T22:34:43;13.60;99.90
33067;DHT22;19428;49.024;8.366;2022-10-16T22:37:09;13.80;99.90
33067;DHT22;19428;49.024;8.366;2022-10-16T22:39:35;13.70;99.90
33067;DHT22;19428;49.024;8.366;2022-10-16T22:42:00;13.90;99.90